Time;durP1;ratioP1;P1;durP2;ratioP2;P2;SDS_P1;SDS_P2;PMS_P1;PMS_P2;Temp;Humidity;BMP_temperature;BMP_pressure;BME280_temperature;BME280_humidity;BME280_pressure;Samples;Min_cycle;Max_cycle;Signal;HPM_P1;HPM_P2
2023/01/30 00:01:32;;;;;;;29.33;20.85;;;;;;;0.36;82.70;101241.25;5113584;28;20096;-74
2023/01/30 00:04:35;;;;;;;31.30;22.20;;;;;;;0.45;82.49;101236.09;5113540;28;20112;-74
2023/01/30 00:07:38;;;;;;;30.20;21.80;;;;;;;0.43;82.66;101218.06;5113431;28;20571;-73
2023/01/30 00:10:42;;;;;;;30.67;23.17;;;;;;;0.54;82.02;101202.63;5112544;28;20046;-74
2023/01/30 00:13:50;;;;;;;29.42;20.33;;;;;;;0.51;82.80;101189.78;5113266;28;20424;-74
2023/01/30 00:16:53;;;;;;;28.85;22.13;;;;;;;0.43;83.76;101199.22;5113080;28;20511;-74
2023/01/30 00:19:56;;;;;;;25.58;18.63;;;;;;;0.51;85.18;101199.19;5112788;28;20043;-74
2023/01/30 00:23:00;;;;;;;30.88;22.25;;;;;;;0.44;85.71;101194.06;5113304;28;20054;-73
2023/01/30 00:26:04;;;;;;;31.40;23.45;;;;;;;0.49;85.29;101188.94;5112144;28;20059;-73
2023/01/30 00:29:07;;;;;;;33.17;23.08;;;;;;;0.46;85.17;101186.34;5113123;28;20046;-74
2023/01/30 00:32:10;;;;;;;32.05;22.95;;;;;;;0.53;85.30;101180.34;5112262;28;20124;-74
2023/01/30 00:35:16;;;;;;;31.65;22.20;;;;;;;0.69;84.69;101158.88;5112721;28;20078;-73
2023/01/30 00:38:20;;;;;;;31.45;22.25;;;;;;;0.63;83.87;101189.75;5112388;28;20038;-74
2023/01/30 00:47:03;;;;;;;36.63;23.33;;;;;;;0.66;84.13;101191.47;5112994;28;20177;-74
2023/01/30 00:48:09;;;;;;;30.92;22.08;;;;;;;0.83;82.86;101200.06;5112095;28;20197;-74
2023/01/30 00:51:12;;;;;;;33.08;21.88;;;;;;;0.73;82.84;101174.31;5111941;28;20055;-74
2023/01/30 00:54:15;;;;;;;26.80;18.90;;;;;;;0.68;82.77;101176.91;5112923;28;20047;-73
2023/01/30 00:57:18;;;;;;;26.80;20.05;;;;;;;0.66;82.98;101164.03;5101196;28;20096;-74
2023/01/30 01:00:22;;;;;;;30.70;22.52;;;;;;;0.66;83.22;101158.03;5115993;28;20479;-74
2023/01/30 01:03:28;;;;;;;30.23;21.25;;;;;;;0.67;82.86;101140.03;5116139;28;20146;-73
2023/01/30 01:06:31;;;;;;;27.88;20.35;;;;;;;0.76;82.89;101148.56;5115764;28;20446;-73
2023/01/30 01:09:34;;;;;;;28.65;20.77;;;;;;;0.76;83.08;101169.16;5116982;28;20055;-73
2023/01/30 01:12:38;;;;;;;30.23;21.33;;;;;;;0.83;82.64;101155.41;5116869;28;20046;-73
2023/01/30 01:15:41;;;;;;;27.92;18.70;;;;;;;0.81;82.40;101141.72;5116260;28;20580;-74
2023/01/30 01:18:44;;;;;;;29.60;20.58;;;;;;;0.83;82.55;101146.00;5115727;28;20126;-74
2023/01/30 01:21:47;;;;;;;25.05;17.80;;;;;;;0.87;82.40;101136.53;5114780;28;20047;-74
2023/01/30 01:24:51;;;;;;;25.52;18.73;;;;;;;0.97;82.18;101127.94;5103628;28;20101;-74
2023/01/30 01:27:54;;;;;;;26.90;18.38;;;;;;;0.96;82.09;101110.78;5116436;28;20047;-74
2023/01/30 01:30:57;;;;;;;25.17;18.17;;;;;;;0.98;81.84;101109.03;5116155;28;20538;-75
2023/01/30 01:34:01;;;;;;;23.52;17.23;;;;;;;0.93;82.30;101100.47;5115259;28;20042;-74
2023/01/30 01:37:04;;;;;;;24.80;18.25;;;;;;;0.96;82.40;101103.03;5115853;28;20575;-74
2023/01/30 01:44:08;;;;;;;25.38;17.77;;;;;;;1.03;82.28;101097.00;5115990;28;20462;-74
2023/01/30 01:47:11;;;;;;;26.85;17.23;;;;;;;1.00;82.16;101083.28;5114975;28;20046;-73
2023/01/30 01:50:44;;;;;;;24.90;17.90;;;;;;;0.99;82.74;101072.13;5116044;28;20057;-74
2023/01/30 01:53:56;;;;;;;22.75;15.90;;;;;;;1.00;82.42;101063.53;5116015;28;20058;-75
2023/01/30 01:57:05;;;;;;;24.98;17.48;;;;;;;1.05;82.63;101064.34;5114736;28;20557;-74
2023/01/30 02:00:11;;;;;;;19.83;15.85;;;;;;;1.06;82.73;101066.09;5103012;28;20507;-74
2023/01/30 02:03:24;;;;;;;21.75;16.55;;;;;;;1.09;82.92;101076.38;5115168;28;20515;-74
2023/01/30 02:06:28;;;;;;;24.67;16.90;;;;;;;1.06;83.08;101067.81;5102821;28;20046;-74
2023/01/30 02:09:32;;;;;;;21.50;16.00;;;;;;;1.08;82.87;101071.22;5114250;28;20412;-75
2023/01/30 02:12:37;;;;;;;21.48;16.10;;;;;;;1.10;83.06;101069.50;5114642;28;20077;-74
2023/01/30 02:15:40;;;;;;;23.02;16.90;;;;;;;1.14;82.91;101063.47;5115344;28;20061;-75
2023/01/30 02:18:45;;;;;;;21.45;16.35;;;;;;;1.25;82.69;101058.28;5114451;28;20045;-75
2023/01/30 02:22:14;;;;;;;22.15;16.50;;;;;;;1.25;82.98;101066.00;5114462;28;20467;-75
2023/01/30 02:25:41;;;;;;;20.90;15.77;;;;;;;1.19;83.33;101053.16;5114828;28;20123;-75
2023/01/30 02:29:01;;;;;;;22.10;16.20;;;;;;;1.24;83.31;101059.13;5113606;28;20565;-74
2023/01/30 02:32:09;;;;;;;21.67;15.98;;;;;;;1.27;83.44;101059.09;5102565;28;20412;-74
2023/01/30 02:35:35;;;;;;;22.40;16.55;;;;;;;1.28;83.21;101063.41;5114803;28;20042;-74
2023/01/30 02:39:03;;;;;;;22.08;15.80;;;;;;;1.23;83.57;101075.44;5114330;28;20045;-73
2023/01/30 02:42:31;;;;;;;22.70;16.77;;;;;;;1.29;83.47;101071.13;5113929;27;20042;-73
2023/01/30 02:45:44;;;;;;;22.98;17.40;;;;;;;1.26;83.75;101072.84;5114768;28;20065;-73
2023/01/30 02:49:02;;;;;;;20.58;15.43;;;;;;;1.28;83.61;101060.84;5113783;28;20048;-74
2023/01/30 02:52:08;;;;;;;25.70;16.98;;;;;;;1.24;84.00;101070.28;5113706;28;20081;-74
2023/01/30 02:55:22;;;;;;;24.40;17.15;;;;;;;1.23;84.27;101057.41;5113631;28;20038;-74
2023/01/30 02:58:33;;;;;;;24.83;18.08;;;;;;;1.32;83.98;101047.06;5114577;28;20100;-75
2023/01/30 03:02:04;;;;;;;21.25;15.23;;;;;;;1.26;84.19;101055.69;5113435;28;20385;-74
2023/01/30 03:05:38;;;;;;;23.42;17.25;;;;;;;1.32;84.19;101036.75;5113372;28;20050;-74
2023/01/30 03:08:52;;;;;;;23.15;17.52;;;;;;;1.30;84.03;101039.31;5113344;28;20320;-74
2023/01/30 03:12:07;;;;;;;21.88;15.52;;;;;;;1.28;84.68;101037.66;5114284;28;20493;-73
2023/01/30 03:15:35;;;;;;;25.83;16.13;;;;;;;1.29;84.62;101017.03;5113181;28;20050;-74
2023/01/30 03:18:42;;;;;;;22.50;15.88;;;;;;;1.27;84.82;101002.44;5113006;28;20043;-74
2023/01/30 03:21:46;;;;;;;22.08;15.48;;;;;;;1.38;84.53;100998.94;5112580;28;20043;-74
2023/01/30 03:24:51;;;;;;;21.20;15.40;;;;;;;1.32;85.15;100995.53;5112638;28;20120;-74
2023/01/30 03:27:55;;;;;;;21.30;16.40;;;;;;;1.31;85.14;100968.94;5101240;28;20177;-73
2023/01/30 03:31:00;;;;;;;21.38;15.00;;;;;;;1.32;85.42;100986.09;5113011;28;20109;-73
2023/01/30 03:34:03;;;;;;;22.80;16.85;;;;;;;1.36;85.71;100984.34;5114070;28;20042;-73
2023/01/30 03:37:08;;;;;;;24.70;17.58;;;;;;;1.36;85.52;100992.06;5112730;28;20054;-73
2023/01/30 03:40:14;;;;;;;21.38;15.02;;;;;;;1.36;85.71;100967.16;5112863;28;20088;-74
2023/01/30 03:43:17;;;;;;;23.50;16.13;;;;;;;1.39;85.79;100976.59;5112835;28;20108;-73
2023/01/30 03:46:21;;;;;;;23.02;17.20;;;;;;;1.40;85.70;100973.13;5113137;28;20051;-74
2023/01/30 03:49:25;;;;;;;20.90;16.23;;;;;;;1.40;85.99;100960.25;5101170;28;20049;-74
2023/01/30 03:52:28;;;;;;;24.45;17.13;;;;;;;1.48;85.91;100957.63;5112662;28;20084;-73
2023/01/30 03:55:31;;;;;;;24.00;18.10;;;;;;;1.43;85.93;100952.50;5113509;28;20523;-74
2023/01/30 03:58:34;;;;;;;;;;;;;;;1.48;86.25;100960.22;5113109;28;20050;-74
2023/01/30 04:01:50;;;;;;;23.13;16.83;;;;;;;1.51;85.94;100948.16;5112245;28;20264;-73
2023/01/30 04:04:53;;;;;;;25.33;19.02;;;;;;;1.56;85.83;100942.94;5113195;28;20140;-73
2023/01/30 04:07:58;;;;;;;25.02;15.60;;;;;;;1.52;85.89;100939.53;5112779;28;20507;-73
2023/01/30 04:11:01;;;;;;;22.80;17.88;;;;;;;1.61;85.79;100930.88;5112045;28;20561;-73
2023/01/30 04:14:05;;;;;;;25.55;18.77;;;;;;;1.62;85.87;100923.13;5100476;28;20043;-74
2023/01/30 04:17:12;;;;;;;24.02;17.45;;;;;;;1.68;85.53;100918.78;5112312;28;20085;-73
2023/01/30 04:20:38;;;;;;;24.15;18.90;;;;;;;1.69;85.68;100923.06;5112198;28;20059;-73
2023/01/30 04:23:41;;;;;;;22.35;17.20;;;;;;;1.72;85.39;100915.31;5112436;28;20042;-74
2023/01/30 04:26:44;;;;;;;23.15;17.17;;;;;;;1.71;85.77;100916.19;5112123;28;20042;-73
2023/01/30 04:29:48;;;;;;;22.08;17.48;;;;;;;1.72;85.81;100897.25;5111999;28;20046;-74
2023/01/30 04:32:51;;;;;;;;;;;;;;;1.72;86.14;100897.25;5116002;28;20039;-74
2023/01/30 04:35:57;;;;;;;25.33;17.27;;;;;;;1.69;85.93;100892.13;5116421;28;19927;-75
2023/01/30 04:39:02;;;;;;;22.58;17.20;;;;;;;1.72;86.13;100887.78;5116080;28;20064;-77
2023/01/30 04:42:07;;;;;;;23.50;17.23;;;;;;;1.77;85.96;100890.34;5115763;28;20408;-73
2023/01/30 04:45:17;;;;;;;22.80;16.77;;;;;;;1.77;86.18;100891.19;5116274;28;20061;-75
2023/01/30 04:48:22;;;;;;;25.23;16.83;;;;;;;1.77;86.02;100901.50;5116136;28;20569;-75
2023/01/30 04:51:26;;;;;;;21.60;16.88;;;;;;;1.79;86.51;100896.34;5116263;28;20099;-74
2023/01/30 04:54:29;;;;;;;21.50;16.00;;;;;;;2.75;87.34;100890.00;5116292;28;20077;-69
2023/01/30 04:57:33;;;;;;;23.58;16.35;;;;;;;2.22;84.54;100883.81;5116169;28;20457;-78
2023/01/30 05:00:36;;;;;;;23.20;17.33;;;;;;;1.92;86.70;100892.78;5117149;28;20054;-75
2023/01/30 05:03:39;;;;;;;21.50;15.95;;;;;;;1.81;87.54;100890.28;5116138;28;20046;-77
2023/01/30 05:06:43;;;;;;;23.85;17.83;;;;;;;1.80;88.44;100880.84;5116246;28;20066;-81
2023/01/30 05:09:46;;;;;;;21.33;16.90;;;;;;;1.80;88.87;100885.16;5116713;28;20055;-78
2023/01/30 05:12:49;;;;;;;23.15;16.75;;;;;;;1.77;89.18;100869.72;5115704;28;20046;-85
2023/01/30 05:15:55;;;;;;;21.13;15.70;;;;;;;1.72;89.95;100861.16;5115399;28;20105;-82
2023/01/30 05:18:58;;;;;;;22.85;17.70;;;;;;;1.80;90.00;100861.94;5114757;28;20549;-82
2023/01/30 05:22:04;;;;;;;21.67;17.33;;;;;;;1.81;90.75;100861.06;5111006;28;20050;-83
2023/01/30 05:25:08;;;;;;;24.95;17.90;;;;;;;1.80;90.72;100836.16;5116127;28;20054;-79
2023/01/30 05:28:11;;;;;;;25.42;17.42;;;;;;;1.80;90.91;100841.31;5116072;28;20054;-80
2023/01/30 05:31:14;;;;;;;23.25;18.45;;;;;;;1.91;90.91;100838.63;5115702;28;20105;-80
2023/01/30 05:34:17;;;;;;;22.45;17.08;;;;;;;1.82;91.38;100829.28;5115124;28;20047;-80
2023/01/30 05:37:21;;;;;;;21.23;16.67;;;;;;;1.84;91.23;100817.22;5116229;28;20047;-81
2023/01/30 05:40:24;;;;;;;22.38;16.98;;;;;;;1.88;90.60;100831.75;5114695;28;20050;-79
2023/01/30 05:43:53;;;;;;;;;;;;;;;1.85;90.72;100830.09;5113767;28;20099;-80
2023/01/30 05:46:56;;;;;;;25.88;17.95;;;;;;;1.91;91.19;100829.16;5113926;28;19923;-80
2023/01/30 05:50:02;;;;;;;21.20;16.63;;;;;;;1.91;90.59;100818.00;5114619;28;20507;-82
2023/01/30 05:53:05;;;;;;;20.83;14.88;;;;;;;1.82;91.02;100822.41;5114648;28;20056;-82
2023/01/30 05:56:08;;;;;;;18.33;14.80;;;;;;;1.90;90.21;100819.72;5115330;28;20073;-79
2023/01/30 05:59:14;;;;;;;22.25;15.18;;;;;;;2.42;91.98;100811.28;5115618;28;20050;-85
2023/01/30 06:02:27;;;;;;;20.05;15.65;;;;;;;2.67;89.87;100821.25;5113803;28;20113;-86
2023/01/30 06:05:40;;;;;;;21.88;14.93;;;;;;;2.72;88.56;100794.50;5115642;28;20047;-84
2023/01/30 06:08:46;;;;;;;17.75;14.10;;;;;;;2.65;87.90;100800.66;5115540;28;20062;-85
2023/01/30 06:11:51;;;;;;;16.33;13.15;;;;;;;2.72;87.93;100816.91;5115446;28;20581;-86
2023/01/30 06:14:54;;;;;;;17.33;12.73;;;;;;;2.65;87.53;100815.25;5114561;28;20058;-73
2023/01/30 06:17:57;;;;;;;15.48;11.80;;;;;;;2.71;86.90;100808.31;5115214;28;20446;-83
2023/01/30 06:21:01;;;;;;;15.43;13.32;;;;;;;2.75;85.87;100825.44;5114505;28;20051;-80
2023/01/30 06:24:04;;;;;;;14.88;11.77;;;;;;;2.46;86.64;100830.19;5115445;28;20097;-73
2023/01/30 06:27:07;;;;;;;13.23;11.23;;;;;;;2.21;87.93;100819.34;5113403;28;20463;-79
2023/01/30 06:30:11;;;;;;;14.30;11.60;;;;;;;2.16;87.92;100810.78;5112022;28;20131;-76
2023/01/30 06:33:15;;;;;;;16.13;11.77;;;;;;;2.11;88.97;100826.34;5113895;28;20065;-77
2023/01/30 06:37:06;;;;;;;13.50;11.40;;;;;;;1.98;90.52;100817.03;5049725;28;20121;-75
2023/01/30 06:40:10;;;;;;;;;;;;;;;1.97;90.96;100813.59;5051509;28;20043;-74
2023/01/30 06:43:14;;;;;;;15.80;12.15;;;;;;;1.96;91.56;100824.81;5112392;28;19954;-78
2023/01/30 06:46:17;;;;;;;14.18;12.05;;;;;;;2.04;91.62;100824.69;5112741;28;20095;-74
2023/01/30 06:49:20;;;;;;;13.65;10.98;;;;;;;2.00;91.03;100821.31;5114332;28;20100;-75
2023/01/30 06:52:24;;;;;;;13.85;9.88;;;;;;;2.00;91.43;100830.78;5113212;28;20113;-75
2023/01/30 06:55:27;;;;;;;16.27;11.65;;;;;;;2.02;91.92;100829.03;5112887;28;20405;-75
2023/01/30 06:58:30;;;;;;;28.58;10.68;;;;;;;1.96;91.74;100835.13;5112200;28;20046;-75
2023/01/30 07:01:34;;;;;;;15.13;10.32;;;;;;;2.72;92.35;100838.41;5113182;28;20424;-74
2023/01/30 07:04:37;;;;;;;15.27;10.68;;;;;;;2.75;89.65;100855.59;5113161;28;20080;-73
2023/01/30 07:07:40;;;;;;;13.05;9.20;;;;;;;2.21;91.19;100858.03;5113127;28;20088;-73
2023/01/30 07:10:44;;;;;;;14.40;9.98;;;;;;;2.10;92.61;100845.25;5113752;28;20412;-73
2023/01/30 07:13:47;;;;;;;11.73;9.20;;;;;;;2.13;92.71;100836.63;5113471;28;20038;-73
2023/01/30 07:16:50;;;;;;;11.05;8.75;;;;;;;2.09;92.55;100857.31;5114017;28;20446;-72
2023/01/30 07:19:54;;;;;;;11.32;9.20;;;;;;;2.12;93.28;100855.56;5113574;28;20085;-72
2023/01/30 07:22:57;;;;;;;12.65;9.65;;;;;;;2.14;93.01;100839.22;5114263;28;20084;-73
2023/01/30 07:26:04;;;;;;;9.82;7.97;;;;;;;2.19;91.91;100854.63;5113884;28;20116;-71
2023/01/30 07:29:08;;;;;;;9.95;7.82;;;;;;;2.16;92.26;100858.09;5125027;27;20081;-74
2023/01/30 07:32:14;;;;;;;13.25;7.68;;;;;;;2.19;92.45;100878.69;5136895;27;20101;-76
2023/01/30 07:35:17;;;;;;;10.63;8.48;;;;;;;2.25;92.06;100867.44;5113810;28;20047;-76
2023/01/30 07:38:21;;;;;;;10.15;8.35;;;;;;;2.27;92.45;100870.88;5125146;27;20088;-75
2023/01/30 07:41:26;;;;;;;10.00;7.75;;;;;;;2.26;92.43;100871.72;5136791;27;20070;-75
2023/01/30 07:44:30;;;;;;;10.75;8.27;;;;;;;2.37;92.30;100854.38;5113980;28;20504;-75
2023/01/30 07:47:33;;;;;;;10.73;8.43;;;;;;;2.43;92.12;100862.06;5136698;27;20092;-75
2023/01/30 07:50:37;;;;;;;9.02;6.55;;;;;;;2.37;92.04;100861.28;5112751;28;20045;-76
2023/01/30 07:53:40;;;;;;;10.13;6.40;;;;;;;2.36;91.97;100856.97;5113530;28;20100;-76
2023/01/30 07:56:44;;;;;;;7.78;6.80;;;;;;;2.51;92.13;100844.72;5110939;28;20054;-75
2023/01/30 07:59:47;;;;;;;9.20;6.57;;;;;;;2.42;92.02;100837.09;5111776;28;20050;-75
2023/01/30 08:02:50;;;;;;;;;;;;;;;2.53;91.26;100830.06;5112734;28;20054;-75
2023/01/30 08:05:53;;;;;;;9.00;7.13;;;;;;;2.58;92.11;100844.63;5111970;28;19964;-75
2023/01/30 08:08:56;;;;;;;8.82;6.10;;;;;;;2.60;91.50;100829.97;5112192;28;20104;-77
2023/01/30 08:12:00;;;;;;;7.97;5.20;;;;;;;2.60;91.00;100838.56;5113307;28;20063;-78
2023/01/30 08:15:04;;;;;;;7.63;5.53;;;;;;;2.65;91.22;100846.25;5113486;28;20041;-73
2023/01/30 08:18:07;;;;;;;6.13;4.72;;;;;;;2.62;90.99;100836.00;5113129;28;20169;-73
2023/01/30 08:21:11;;;;;;;8.00;6.32;;;;;;;2.61;91.22;100845.44;5113226;28;20061;-73
2023/01/30 08:24:14;;;;;;;10.63;5.47;;;;;;;2.90;92.36;100832.09;5113163;28;20104;-76
2023/01/30 08:27:17;;;;;;;8.05;5.38;;;;;;;3.15;90.94;100832.53;5112328;28;20044;-79
2023/01/30 08:30:22;;;;;;;7.55;5.60;;;;;;;3.16;90.71;100843.72;5113100;28;20571;-80
2023/01/30 08:33:25;;;;;;;6.97;4.85;;;;;;;3.18;89.72;100857.47;5113104;28;20457;-72
2023/01/30 08:36:28;;;;;;;5.78;4.80;;;;;;;3.16;89.85;100854.94;5113049;28;20047;-74
2023/01/30 08:39:32;;;;;;;6.38;5.13;;;;;;;3.15;89.44;100849.78;5113394;28;20053;-73
2023/01/30 08:42:36;;;;;;;6.53;5.10;;;;;;;3.12;90.01;100839.50;5113067;28;20050;-73
2023/01/30 08:45:39;;;;;;;5.85;4.35;;;;;;;2.94;90.35;100833.75;5113181;28;20081;-74
2023/01/30 08:48:43;;;;;;;5.35;3.88;;;;;;;2.90;90.80;100815.75;5112946;28;20088;-74
2023/01/30 08:51:46;;;;;;;4.80;3.90;;;;;;;2.88;90.63;100826.09;5112980;28;20557;-74
2023/01/30 08:54:50;;;;;;;5.30;3.40;;;;;;;2.98;90.24;100830.25;5113261;28;20458;-73
2023/01/30 08:57:55;;;;;;;4.97;3.40;;;;;;;2.95;89.99;100819.97;5112994;28;20558;-74
2023/01/30 09:00:58;;;;;;;3.85;2.88;;;;;;;2.98;89.45;100813.91;5112907;28;20596;-74
2023/01/30 09:04:01;;;;;;;4.50;2.97;;;;;;;2.96;89.98;100824.22;5112884;28;20046;-73
2023/01/30 09:07:05;;;;;;;4.22;2.80;;;;;;;3.02;90.27;100831.88;5113174;28;20074;-74
2023/01/30 09:10:10;;;;;;;4.13;2.90;;;;;;;3.07;90.41;100818.06;5112769;28;20085;-74
2023/01/30 09:13:13;;;;;;;5.07;3.22;;;;;;;2.98;90.96;100832.81;5111534;28;20066;-74
2023/01/30 09:16:16;;;;;;;;;;;;;;;2.98;91.20;100835.41;5113208;28;20038;-74
2023/01/30 09:19:20;;;;;;;3.55;2.15;;;;;;;2.99;90.02;100811.28;5114428;28;19919;-73
2023/01/30 09:22:33;;;;;;;4.97;2.83;;;;;;;3.13;90.30;100812.78;5114399;28;20047;-74
2023/01/30 09:26:03;;;;;;;3.60;2.30;;;;;;;3.08;90.37;100818.03;5116078;28;20051;-74
2023/01/30 09:29:06;;;;;;;4.20;2.70;;;;;;;3.18;90.53;100813.56;5115191;28;20408;-74
2023/01/30 09:32:09;;;;;;;3.15;1.77;;;;;;;3.24;88.90;100816.03;5137961;27;20057;-73
2023/01/30 09:35:14;;;;;;;6.15;3.50;;;;;;;3.25;88.63;100826.34;5114571;28;20047;-73
2023/01/30 09:38:19;;;;;;;3.75;2.22;;;;;;;3.25;88.72;100822.91;5114292;28;20084;-73
2023/01/30 09:41:40;;;;;;;3.33;2.00;;;;;;;3.33;88.63;100831.38;5115178;28;20046;-73
2023/01/30 09:45:17;;;;;;;3.67;2.13;;;;;;;3.40;87.81;100855.38;5115080;28;20061;-73
2023/01/30 09:48:35;;;;;;;3.17;2.00;;;;;;;3.28;88.67;100868.53;5116002;28;20047;-73
2023/01/30 09:51:43;;;;;;;3.42;1.77;;;;;;;3.20;89.57;100846.25;5115968;28;20074;-73
2023/01/30 09:54:46;;;;;;;2.58;1.50;;;;;;;3.20;89.70;100845.41;5115820;28;20081;-74
2023/01/30 09:57:51;;;;;;;3.33;1.80;;;;;;;3.22;89.49;100829.00;5114602;28;20659;-73
2023/01/30 10:01:09;;;;;;;2.60;1.40;;;;;;;3.29;89.39;100819.41;5115893;28;20093;-73
2023/01/30 10:04:15;;;;;;;2.72;1.45;;;;;;;3.34;89.02;100827.91;5115625;28;20065;-73
2023/01/30 10:07:44;;;;;;;2.78;1.50;;;;;;;3.30;90.33;100826.28;5109408;28;20038;-73
2023/01/30 10:10:51;;;;;;;2.78;1.45;;;;;;;3.56;89.89;100832.69;5114673;28;20050;-73
2023/01/30 10:14:14;;;;;;;3.10;1.80;;;;;;;3.56;89.16;100837.88;5115524;28;20101;-73
2023/01/30 10:17:45;;;;;;;7.63;5.65;;;;;;;3.64;89.21;100836.00;5115381;28;20562;-73
2023/01/30 10:21:10;;;;;;;3.58;1.88;;;;;;;3.62;87.85;100827.41;5115426;28;20046;-73
2023/01/30 10:24:25;;;;;;;3.47;1.70;;;;;;;3.68;87.90;100824.72;5114804;28;20042;-73
2023/01/30 10:27:31;;;;;;;2.38;1.25;;;;;;;3.74;87.47;100819.44;5115506;28;20396;-74
2023/01/30 10:30:34;;;;;;;3.15;1.95;;;;;;;3.77;87.82;100819.38;5115046;28;20096;-75
2023/01/30 10:34:02;;;;;;;2.85;1.55;;;;;;;3.86;86.74;100810.56;5115075;28;20046;-73
2023/01/30 10:37:09;;;;;;;3.55;1.90;;;;;;;3.97;87.01;100800.84;5114938;28;20461;-77
2023/01/30 10:40:25;;;;;;;3.00;1.52;;;;;;;4.06;85.99;100799.81;5113171;28;20508;-73
2023/01/30 10:43:33;;;;;;;3.08;1.25;;;;;;;4.05;86.07;100798.97;5115151;28;20082;-73
2023/01/30 10:46:55;;;;;;;2.22;1.00;;;;;;;4.09;85.01;100797.16;5114141;28;20096;-73
2023/01/30 10:50:08;;;;;;;3.22;1.30;;;;;;;4.22;83.78;100790.84;5114486;28;20132;-72
2023/01/30 10:53:11;;;;;;;2.63;1.08;;;;;;;4.38;83.54;100792.19;5114331;28;20096;-73
2023/01/30 10:56:23;;;;;;;6.10;2.53;;;;;;;4.25;84.73;100803.72;5137271;27;20064;-74
2023/01/30 10:59:29;;;;;;;2.53;1.17;;;;;;;4.26;84.41;100813.19;5114602;28;20412;-76
2023/01/30 11:02:41;;;;;;;6.95;2.55;;;;;;;4.26;84.19;100820.94;5114468;28;20038;-75
2023/01/30 11:05:57;;;;;;;6.85;2.83;;;;;;;4.27;84.53;100817.47;5114478;28;20514;-75
2023/01/30 11:09:01;;;;;;;6.05;3.05;;;;;;;4.36;84.38;100806.91;5114440;28;20459;-74
2023/01/30 11:12:06;;;;;;;22.60;18.45;;;;;;;4.42;84.31;100817.13;5114352;28;20047;-74
2023/01/30 11:15:10;;;;;;;9.15;7.43;;;;;;;4.42;84.02;100811.94;5114243;28;20515;-74
2023/01/30 11:18:15;;;;;;;5.30;4.35;;;;;;;4.64;83.95;100807.13;5114479;28;20105;-73
2023/01/30 11:21:23;;;;;;;8.23;5.60;;;;;;;4.68;83.17;100820.03;5114096;28;20562;-74
2023/01/30 11:24:41;;;;;;;5.25;3.80;;;;;;;4.90;82.41;100814.28;5114270;28;20094;-72
2023/01/30 11:27:52;;;;;;;8.07;6.00;;;;;;;4.78;82.86;100817.16;5093017;28;20409;-75
2023/01/30 11:30:59;;;;;;;4.60;2.63;;;;;;;4.63;82.49;100809.78;5093631;28;20105;-74
2023/01/30 11:34:11;;;;;;;4.45;2.88;;;;;;;4.58;82.92;100821.97;5093555;28;20069;-72
2023/01/30 11:37:26;;;;;;;4.53;2.63;;;;;;;4.76;82.52;100818.97;5092665;28;20051;-74
2023/01/30 11:40:30;;;;;;;2.88;1.67;;;;;;;4.58;83.54;100807.28;5093500;28;20047;-73
2023/01/30 11:43:36;;;;;;;5.90;4.00;;;;;;;4.61;83.74;100822.75;5093436;28;20043;-72
2023/01/30 11:46:41;;;;;;;10.75;7.38;;;;;;;4.74;82.54;100800.00;5093339;28;20397;-72
2023/01/30 11:49:51;;;;;;;9.15;5.82;;;;;;;4.74;81.92;100804.34;5093387;28;20081;-72
2023/01/30 11:53:02;;;;;;;4.97;2.47;;;;;;;4.74;81.97;100804.34;5093499;28;20185;-72
2023/01/30 11:56:16;;;;;;;3.22;1.77;;;;;;;4.67;82.61;100811.41;5093164;28;20059;-72
2023/01/30 11:59:20;;;;;;;4.60;2.22;;;;;;;4.72;83.13;100819.06;5093181;28;20054;-72
2023/01/30 12:02:32;;;;;;;5.00;2.00;;;;;;;4.79;82.49;100803.34;5093384;28;20055;-73
2023/01/30 12:05:41;;;;;;;4.70;2.45;;;;;;;4.85;81.95;100800.59;5093025;28;20071;-73
2023/01/30 12:08:45;;;;;;;4.32;2.10;;;;;;;4.88;81.76;100800.53;5092231;28;20078;-73
2023/01/30 12:11:48;;;;;;;4.85;2.83;;;;;;;5.05;81.29;100788.91;5093001;28;20042;-72
2023/01/30 12:14:53;;;;;;;6.55;3.47;;;;;;;5.23;80.64;100774.59;5093257;28;20094;-73
2023/01/30 12:18:03;;;;;;;3.50;1.77;;;;;;;5.25;79.00;100781.44;5093069;28;20051;-73
2023/01/30 12:21:39;;;;;;;3.38;1.15;;;;;;;5.20;79.80;100780.72;5092934;28;20476;-79
2023/01/30 12:24:57;;;;;;;4.13;1.60;;;;;;;5.12;80.43;100780.06;5092529;28;20043;-74
2023/01/30 12:28:09;;;;;;;2.40;0.75;;;;;;;5.05;80.24;100775.94;5112020;28;20097;-76
2023/01/30 12:31:21;;;;;;;5.53;2.05;;;;;;;5.08;80.47;100781.03;5134148;27;20135;-76
2023/01/30 12:34:24;;;;;;;6.95;2.75;;;;;;;5.10;80.43;100779.25;5111348;28;20096;-75
2023/01/30 12:37:37;;;;;;;;;;;;;;;5.15;80.36;100782.59;5111828;28;20077;-76
2023/01/30 12:41:30;;;;;;;7.20;3.00;;;;;;;5.33;79.08;100787.28;5112164;28;19919;-73
2023/01/30 12:44:44;;;;;;;12.93;2.95;;;;;;;5.45;78.16;100788.69;5034782;28;20080;-75
2023/01/30 12:48:04;;;;;;;13.43;4.45;;;;;;;5.46;78.29;100774.84;5113102;28;20042;-72
2023/01/30 12:51:30;;;;;;;16.23;9.00;;;;;;;5.63;78.39;100787.34;5112991;28;20051;-76
2023/01/30 12:55:06;;;;;;;8.13;3.20;;;;;;;5.66;76.82;100787.25;5116602;28;20109;-75
2023/01/30 12:58:30;;;;;;;22.65;9.30;;;;;;;5.67;77.04;100788.97;5116193;28;20109;-79
2023/01/30 13:01:51;;;;;;;;;;;;;;;5.65;76.90;100788.16;5139688;27;20049;-76
2023/01/30 13:05:21;;;;;;;21.35;9.02;;;;;;;5.77;77.60;100786.97;5116519;28;19919;-80
2023/01/30 13:08:53;;;;;;;14.52;6.20;;;;;;;5.95;76.97;100785.63;5116724;28;20119;-74
2023/01/30 13:12:01;;;;;;;15.32;5.88;;;;;;;6.04;78.79;100798.34;5116254;28;20085;-74
2023/01/30 13:15:26;;;;;;;14.43;5.22;;;;;;;5.92;76.82;100807.28;5116605;28;20128;-72
2023/01/30 13:18:50;;;;;;;14.70;6.10;;;;;;;5.99;71.41;100792.41;5116671;28;20089;-75
2023/01/30 13:22:05;;;;;;;10.43;3.55;;;;;;;6.10;70.52;100800.75;5116350;28;20046;-78
2023/01/30 13:25:17;;;;;;;16.70;6.57;;;;;;;6.13;70.94;100803.28;5116283;27;20458;-79
2023/01/30 13:28:26;;;;;;;29.23;7.65;;;;;;;6.15;69.63;100804.06;5116441;28;20104;-74
2023/01/30 13:31:38;;;;;;;18.45;8.40;;;;;;;6.28;69.84;100805.38;5116483;28;20457;-74
2023/01/30 13:34:48;;;;;;;16.52;7.53;;;;;;;6.18;69.84;100816.94;5116186;28;20058;-74
2023/01/30 13:37:56;;;;;;;14.63;5.85;;;;;;;6.13;72.98;100821.44;5116472;28;20416;-75
2023/01/30 13:41:02;;;;;;;34.10;19.38;;;;;;;6.14;71.27;100848.25;5115250;28;20078;-76
2023/01/30 13:44:31;;;;;;;27.02;12.38;;;;;;;6.16;73.27;100860.28;5114770;28;20561;-80
2023/01/30 13:47:47;;;;;;;14.57;5.45;;;;;;;6.31;73.37;100855.53;5116212;28;20053;-85
2023/01/30 13:51:19;;;;;;;9.93;2.00;;;;;;;6.38;74.41;100846.66;5138031;27;20046;-78
2023/01/30 13:54:49;;;;;;;14.02;4.32;;;;;;;6.07;75.48;100855.38;5115937;28;20420;-82
2023/01/30 13:58:21;;;;;;;15.98;6.82;;;;;;;6.14;78.37;100858.63;5115572;28;20042;-80
2023/01/30 14:02:01;;;;;;;13.98;4.35;;;;;;;6.17;78.85;100864.59;5116402;28;20045;-74
2023/01/30 14:05:09;;;;;;;19.30;8.30;;;;;;;6.00;77.30;100861.63;5115139;28;20066;-81
2023/01/30 14:08:20;;;;;;;8.65;3.28;;;;;;;5.88;78.17;100867.97;5115623;28;20049;-85
2023/01/30 14:11:35;;;;;;;9.32;3.20;;;;;;;5.95;78.52;100873.88;5114984;28;20057;-76
2023/01/30 14:14:40;;;;;;;17.95;7.72;;;;;;;6.13;71.76;100873.38;5138425;27;20046;-77
2023/01/30 14:17:58;;;;;;;14.05;2.47;;;;;;;6.18;69.12;100875.81;5115336;28;20065;-76
2023/01/30 14:21:23;;;;;;;13.50;2.20;;;;;;;6.09;70.65;100892.50;5115158;28;20097;-77
2023/01/30 14:24:27;;;;;;;12.75;2.95;;;;;;;6.04;71.23;100908.22;5112568;28;20085;-78
2023/01/30 14:27:31;;;;;;;11.82;2.13;;;;;;;5.86;72.54;100913.84;5115023;28;20047;-77
2023/01/30 14:30:44;;;;;;;11.25;2.83;;;;;;;5.56;76.07;100923.31;5114727;28;20051;-77
2023/01/30 14:33:50;;;;;;;15.52;3.05;;;;;;;5.25;77.53;100923.19;5115140;28;20057;-77
2023/01/30 14:36:54;;;;;;;14.63;4.32;;;;;;;5.19;77.55;100925.94;5138068;27;20360;-77
2023/01/30 14:40:01;;;;;;;15.73;5.60;;;;;;;5.29;78.10;100928.25;5112873;28;20086;-78
2023/01/30 14:43:11;;;;;;;17.95;5.28;;;;;;;5.47;79.29;100936.50;5114227;28;20088;-78
2023/01/30 14:46:15;;;;;;;15.88;4.10;;;;;;;5.48;80.59;100930.41;5114243;28;20041;-78
2023/01/30 14:49:21;;;;;;;;;;;;;;;5.43;80.93;100933.13;5093675;28;20089;-81